createdAt,value
2022-12-03T05:07:40.749Z,101429.50
2022-12-03T05:10:09.663Z,101436.81
2022-12-03T05:12:36.972Z,101432.34
2022-12-03T05:15:05.712Z,101439.56
2022-12-03T05:17:33.679Z,101441.63
2022-12-03T05:20:19.400Z,101438.09
2022-12-03T05:22:46.695Z,101439.78
2022-12-03T05:25:14.019Z,101436.53
2022-12-03T05:27:41.808Z,101441.94
2022-12-03T05:30:09.628Z,101432.81
2022-12-03T05:32:36.899Z,101431.75
2022-12-03T05:35:04.491Z,101434.44
2022-12-03T05:37:31.887Z,101429.34
2022-12-03T05:39:59.921Z,101425.59
2022-12-03T05:42:46.083Z,101426.28
2022-12-03T05:45:13.310Z,101428.38
2022-12-03T05:47:40.847Z,101425.16
2022-12-03T05:50:08.693Z,101427.69
2022-12-03T05:52:36.084Z,101423.44
2022-12-03T05:55:03.810Z,101430.00
2022-12-03T05:57:31.074Z,101434.88
2022-12-03T05:59:58.382Z,101428.22
2022-12-03T06:02:25.744Z,101438.03
2022-12-03T06:04:54.028Z,101424.09
2022-12-03T06:07:21.594Z,101427.13
2022-12-03T06:09:48.824Z,101429.78
2022-12-03T06:12:16.152Z,101422.44
2022-12-03T06:14:43.479Z,101423.44
2022-12-03T06:17:11.534Z,101420.56
2022-12-03T06:19:38.774Z,101415.56
2022-12-03T06:22:06.089Z,101418.88
2022-12-03T06:24:33.816Z,101421.41
2022-12-03T06:27:01.102Z,101422.91
2022-12-03T06:29:28.407Z,101421.41
2022-12-03T06:31:55.698Z,101428.53
2022-12-03T06:34:23.468Z,101431.13
2022-12-03T06:36:50.849Z,101423.63
2022-12-03T06:39:18.246Z,101425.50
2022-12-03T06:41:45.627Z,101414.47
2022-12-03T06:44:13.598Z,101414.78
2022-12-03T06:46:41.533Z,101425.50
2022-12-03T06:49:09.483Z,101424.53
2022-12-03T06:51:37.428Z,101419.13
2022-12-03T06:54:05.688Z,101413.09
2022-12-03T06:56:37.880Z,101422.66
2022-12-03T06:59:09.235Z,101434.34
2022-12-03T07:01:36.529Z,101428.88
2022-12-03T07:04:04.238Z,101421.31
2022-12-03T07:06:31.718Z,101426.19
2022-12-03T07:08:59.064Z,101419.47
2022-12-03T07:11:32.210Z,101422.66
2022-12-03T07:14:05.188Z,101419.44
2022-12-03T07:16:37.977Z,101412.81
2022-12-03T07:19:06.762Z,101427.38
2022-12-03T07:21:34.425Z,101426.66
2022-12-03T07:24:01.685Z,101424.25
2022-12-03T07:26:29.053Z,101432.47
2022-12-03T07:28:57.216Z,101429.28
2022-12-03T07:31:24.719Z,101433.91
2022-12-03T07:33:52.080Z,101427.72
2022-12-03T07:36:19.398Z,101421.81
2022-12-03T07:38:46.670Z,101431.88
2022-12-03T07:41:13.952Z,101433.13
2022-12-03T07:43:41.570Z,101432.19
2022-12-03T07:46:09.144Z,101436.06
2022-12-03T07:48:36.888Z,101427.69
2022-12-03T07:51:04.286Z,101433.19
2022-12-03T07:53:31.545Z,101432.72
2022-12-03T07:55:58.762Z,101428.53
2022-12-03T07:58:26.011Z,101426.06
2022-12-03T08:00:53.357Z,101425.84
2022-12-03T08:03:20.851Z,101423.88
2022-12-03T08:05:49.091Z,101424.25
2022-12-03T08:08:16.588Z,101424.09
2022-12-03T08:10:43.885Z,101429.00
2022-12-03T08:13:14.433Z,101428.13
2022-12-03T08:15:42.586Z,101426.28
2022-12-03T08:18:19.804Z,101425.19
2022-12-03T08:20:49.719Z,101426.31
2022-12-03T08:23:23.328Z,101433.47
2022-12-03T08:25:51.856Z,101423.88
2022-12-03T08:28:22.484Z,101421.19
2022-12-03T08:31:07.912Z,101427.44
2022-12-03T08:33:37.067Z,101422.38
2022-12-03T08:36:24.061Z,101426.78
2022-12-03T08:38:57.802Z,101429.13
2022-12-03T08:41:44.507Z,101424.81
2022-12-03T08:44:25.897Z,101422.22
2022-12-03T08:47:10.244Z,101417.31
2022-12-03T08:49:37.714Z,101420.03
2022-12-03T08:52:17.899Z,101420.75
2022-12-03T08:54:57.436Z,101412.13
2022-12-03T08:57:27.218Z,101418.88
2022-12-03T09:00:01.135Z,101420.25
2022-12-03T09:02:34.649Z,101417.56
2022-12-03T09:05:17.077Z,101423.13
2022-12-03T09:07:44.555Z,101426.81
2022-12-03T09:10:12.183Z,101428.16
2022-12-03T09:12:39.777Z,101418.72
2022-12-03T09:15:07.785Z,101424.34
2022-12-03T09:17:35.098Z,101423.84
2022-12-03T09:20:02.437Z,101420.16
2022-12-03T09:22:30.270Z,101423.75
2022-12-03T09:24:57.517Z,101424.25
2022-12-03T09:27:25.638Z,101427.00
2022-12-03T09:29:53.001Z,101424.41
2022-12-03T09:32:20.865Z,101424.72
2022-12-03T09:34:48.590Z,101418.44
2022-12-03T09:37:16.342Z,101419.09
2022-12-03T09:39:44.023Z,101411.19
2022-12-03T09:42:11.544Z,101412.59
2022-12-03T09:44:39.148Z,101413.00
2022-12-03T09:47:07.596Z,101405.38
2022-12-03T09:49:37.670Z,101415.44
2022-12-03T09:52:07.278Z,101411.63
2022-12-03T09:54:34.738Z,101407.88
2022-12-03T09:57:04.281Z,101397.44
2022-12-03T09:59:34.326Z,101403.19
2022-12-03T10:02:03.113Z,101397.53
2022-12-03T10:04:30.624Z,101392.00
2022-12-03T10:06:59.008Z,101394.19
2022-12-03T10:09:28.823Z,101387.19
2022-12-03T10:11:59.276Z,101391.53
2022-12-03T10:14:27.714Z,101391.38
2022-12-03T10:16:56.367Z,101398.03
2022-12-03T10:19:27.628Z,101384.13
2022-12-03T10:21:55.770Z,101376.09
2022-12-03T10:24:32.293Z,101388.16
2022-12-03T10:27:24.117Z,101382.41
2022-12-03T10:30:03.104Z,101380.91
2022-12-03T10:32:51.030Z,101362.31
2022-12-03T10:35:24.411Z,101362.66
2022-12-03T10:38:05.288Z,101365.16
2022-12-03T10:40:34.510Z,101359.75
2022-12-03T10:43:27.498Z,101349.28
2022-12-03T10:46:04.267Z,101347.63
2022-12-03T10:48:32.178Z,101349.78
2022-12-03T10:51:11.342Z,101346.81
2022-12-03T10:53:41.090Z,101354.75
2022-12-03T10:56:17.427Z,101333.31
2022-12-03T10:58:44.782Z,101330.94
2022-12-03T11:01:19.758Z,101332.69
2022-12-03T11:03:47.867Z,101336.88
2022-12-03T11:06:21.512Z,101337.84
2022-12-03T11:08:57.623Z,101332.03
2022-12-03T11:11:30.146Z,101334.94
2022-12-03T11:14:02.538Z,101342.06
2022-12-03T11:16:38.994Z,101334.19
2022-12-03T11:19:12.586Z,101338.25
2022-12-03T11:22:09.815Z,101337.22
2022-12-03T11:24:40.264Z,101338.06
2022-12-03T11:27:10.563Z,101337.19
2022-12-03T11:30:00.024Z,101330.63
2022-12-03T11:32:39.702Z,101325.22
2022-12-03T11:35:17.007Z,101320.28
2022-12-03T11:37:44.361Z,101318.63
2022-12-03T11:40:17.880Z,101314.72
2022-12-03T11:42:47.317Z,101320.63
2022-12-03T11:45:26.726Z,101318.63
2022-12-03T11:48:00.391Z,101313.19
2022-12-03T11:50:43.888Z,101312.50
2022-12-03T11:53:19.491Z,101308.94
2022-12-03T11:55:53.291Z,101313.50
2022-12-03T11:58:28.106Z,101305.00
2022-12-03T12:00:58.248Z,101300.13
2022-12-03T12:03:33.403Z,101300.25
2022-12-03T12:06:27.883Z,101305.53
2022-12-03T12:09:04.198Z,101314.47
2022-12-03T12:11:47.798Z,101305.84
2022-12-03T12:14:26.447Z,101310.78
2022-12-03T12:16:55.230Z,101314.19
2022-12-03T12:19:51.077Z,101316.22
2022-12-03T12:22:42.742Z,101301.31
2022-12-03T12:25:37.575Z,101302.16
2022-12-03T12:28:05.488Z,101290.13
2022-12-03T12:30:33.400Z,101286.44
2022-12-03T12:33:23.155Z,101282.13
2022-12-03T12:35:51.479Z,101280.78
2022-12-03T12:38:20.712Z,101276.38
2022-12-03T12:40:50.542Z,101266.06
2022-12-03T12:43:32.919Z,101263.06
2022-12-03T12:46:38.657Z,101267.75
2022-12-03T12:48:59.392Z,101267.28
2022-12-03T12:51:27.400Z,101268.59
2022-12-03T12:53:57.408Z,101251.16
2022-12-03T12:56:32.932Z,101266.44
2022-12-03T12:59:29.435Z,101263.53
2022-12-03T13:01:57.271Z,101255.94
2022-12-03T13:04:26.540Z,101263.19
2022-12-03T13:06:54.596Z,101257.78
2022-12-03T13:09:24.705Z,101256.41
2022-12-03T13:11:55.827Z,101255.75
2022-12-03T13:14:26.106Z,101235.91
2022-12-03T13:16:56.664Z,101252.34
2022-12-03T13:19:24.058Z,101252.03
2022-12-03T13:22:12.311Z,101257.63
2022-12-03T13:24:54.608Z,101259.31
2022-12-03T13:27:29.957Z,101250.69
2022-12-03T13:30:06.980Z,101250.16
2022-12-03T13:32:37.692Z,101252.53
2022-12-03T13:35:26.613Z,101248.81
2022-12-03T13:37:54.708Z,101252.19
2022-12-03T13:40:22.514Z,101248.28
2022-12-03T13:42:50.422Z,101239.31
2022-12-03T13:45:28.308Z,101244.91
2022-12-03T13:47:59.033Z,101243.38
2022-12-03T13:50:34.562Z,101239.31
2022-12-03T13:53:13.621Z,101249.66
2022-12-03T13:55:47.917Z,101239.13
2022-12-03T13:58:15.270Z,101231.88
2022-12-03T14:00:43.504Z,101229.31
2022-12-03T14:03:11.079Z,101231.88
2022-12-03T14:05:39.029Z,101226.78
2022-12-03T14:08:06.505Z,101225.09
2022-12-03T14:10:34.576Z,101221.88
2022-12-03T14:13:01.992Z,101226.81
2022-12-03T14:15:29.895Z,101227.28
2022-12-03T14:17:57.492Z,101229.69
2022-12-03T14:20:24.824Z,101224.91
2022-12-03T14:22:57.732Z,101237.47
2022-12-03T14:25:27.069Z,101246.63
2022-12-03T14:27:57.608Z,101243.06
2022-12-03T14:30:25.383Z,101250.31
2022-12-03T14:32:55.630Z,101252.88
2022-12-03T14:35:22.855Z,101255.22
2022-12-03T14:37:50.164Z,101266.06
2022-12-03T14:40:21.450Z,101262.03
2022-12-03T14:42:49.214Z,101262.53
2022-12-03T14:45:16.399Z,101273.19
2022-12-03T14:47:44.186Z,101271.00
2022-12-03T14:50:14.390Z,101269.97
2022-12-03T14:52:43.253Z,101281.00
2022-12-03T14:55:10.523Z,101273.38
2022-12-03T14:57:38.369Z,101279.97
2022-12-03T15:00:07.520Z,101286.66
2022-12-03T15:02:35.331Z,101284.47
2022-12-03T15:05:02.738Z,101280.59
2022-12-03T15:07:31.836Z,101286.88
2022-12-03T15:09:59.181Z,101292.56
2022-12-03T15:12:26.918Z,101294.78
2022-12-03T15:14:54.622Z,101287.00
2022-12-03T15:17:30.894Z,101294.28
2022-12-03T15:19:59.654Z,101286.44
2022-12-03T15:22:27.033Z,101298.38
2022-12-03T15:24:54.531Z,101292.03
2022-12-03T15:27:21.991Z,101294.88
2022-12-03T15:29:49.724Z,101300.50
2022-12-03T15:32:16.990Z,101288.56
2022-12-03T15:34:44.748Z,101292.34
2022-12-03T15:37:12.159Z,101288.25
2022-12-03T15:39:45.106Z,101295.53
2022-12-03T15:42:15.846Z,101291.84
2022-12-03T15:44:43.118Z,101282.34
2022-12-03T15:47:11.133Z,101291.16
2022-12-03T15:49:38.478Z,101291.50
2022-12-03T15:52:07.778Z,101300.97
2022-12-03T15:54:35.144Z,101294.53
2022-12-03T15:57:02.451Z,101292.16
2022-12-03T15:59:29.786Z,101294.88
2022-12-03T16:01:57.141Z,101291.31
2022-12-03T16:04:24.549Z,101286.03
2022-12-03T16:06:51.944Z,101287.03
2022-12-03T16:09:25.292Z,101291.13
2022-12-03T16:11:54.387Z,101295.44
2022-12-03T16:14:22.242Z,101307.13
2022-12-03T16:16:49.643Z,101298.66
2022-12-03T16:19:16.936Z,101307.50
2022-12-03T16:21:44.692Z,101305.66
2022-12-03T16:24:12.443Z,101303.78
2022-12-03T16:26:40.186Z,101300.94
2022-12-03T16:29:07.508Z,101297.00
2022-12-03T16:31:34.962Z,101302.84
2022-12-03T16:34:02.795Z,101298.56
2022-12-03T16:36:30.554Z,101301.78
2022-12-03T16:38:58.131Z,101302.09
2022-12-03T16:41:25.582Z,101293.78
2022-12-03T16:43:52.919Z,101297.03
2022-12-03T16:46:23.358Z,101302.81
2022-12-03T16:48:52.950Z,101302.31
2022-12-03T16:51:20.315Z,101300.25
2022-12-03T16:53:48.379Z,101305.00
2022-12-03T16:56:15.976Z,101310.56
2022-12-03T16:58:44.198Z,101300.47
2022-12-03T17:01:11.849Z,101309.72
2022-12-03T17:03:39.164Z,101308.00
2022-12-03T17:06:06.703Z,101302.63
2022-12-03T17:08:34.002Z,101306.72
2022-12-03T17:11:03.118Z,101301.47
2022-12-03T17:13:30.891Z,101299.25
2022-12-03T17:15:58.905Z,101296.88
2022-12-03T17:18:26.386Z,101297.16
2022-12-03T17:20:53.753Z,101297.00
2022-12-03T17:23:21.132Z,101296.84
2022-12-03T17:25:48.569Z,101299.38
2022-12-03T17:28:16.350Z,101299.00
2022-12-03T17:30:44.363Z,101299.03
2022-12-03T17:33:12.259Z,101295.78
2022-12-03T17:35:40.290Z,101291.03
2022-12-03T17:38:09.021Z,101289.88
2022-12-03T17:40:36.352Z,101290.09
2022-12-03T17:43:05.894Z,101290.75
2022-12-03T17:45:33.519Z,101288.09
2022-12-03T17:48:00.833Z,101280.25
2022-12-03T17:50:28.079Z,101290.03
2022-12-03T17:52:55.451Z,101279.22
2022-12-03T17:55:31.274Z,101284.63
2022-12-03T17:58:01.112Z,101291.13
2022-12-03T18:00:28.390Z,101283.13
2022-12-03T18:02:56.063Z,101281.66
2022-12-03T18:05:23.363Z,101276.88
2022-12-03T18:07:50.904Z,101274.50
2022-12-03T18:10:18.514Z,101273.84
2022-12-03T18:12:46.375Z,101274.56
2022-12-03T18:15:16.281Z,101272.69
2022-12-03T18:17:43.598Z,101268.41
2022-12-03T18:20:11.309Z,101278.16
2022-12-03T18:22:39.207Z,101274.78
2022-12-03T18:25:07.635Z,101273.16
2022-12-03T18:27:35.194Z,101272.63
2022-12-03T18:30:03.051Z,101275.13
2022-12-03T18:32:30.802Z,101271.41
2022-12-03T18:34:58.688Z,101282.56
2022-12-03T18:37:29.527Z,101276.34
2022-12-03T18:39:58.169Z,101273.16
2022-12-03T18:42:27.196Z,101270.47
2022-12-03T18:44:56.767Z,101275.34
2022-12-03T18:47:28.145Z,101285.19
2022-12-03T18:49:56.256Z,101275.84
2022-12-03T18:52:24.933Z,101278.22
2022-12-03T18:54:52.743Z,101276.72
2022-12-03T18:57:20.147Z,101281.47
2022-12-03T18:59:47.595Z,101264.50
2022-12-03T19:05:09.274Z,101273.13
2022-12-03T19:07:36.967Z,101272.88
2022-12-03T19:10:05.058Z,101273.00
2022-12-03T19:12:33.054Z,101277.03
2022-12-03T19:15:02.591Z,101274.50
2022-12-03T19:17:30.452Z,101275.53
2022-12-03T19:19:58.123Z,101273.34
2022-12-03T19:22:25.961Z,101275.53
2022-12-03T19:24:53.229Z,101273.38
2022-12-03T19:27:20.482Z,101274.88
2022-12-03T19:29:48.859Z,101271.31
2022-12-03T19:32:16.152Z,101270.63
2022-12-03T19:34:43.393Z,101272.50
2022-12-03T19:37:11.139Z,101273.66
2022-12-03T19:39:38.418Z,101270.78
2022-12-03T19:42:05.759Z,101278.22
2022-12-03T19:44:34.151Z,101274.16
2022-12-03T19:47:01.835Z,101268.91
2022-12-03T19:49:29.537Z,101270.59
2022-12-03T19:51:57.068Z,101272.09
2022-12-03T19:54:24.568Z,101268.66
2022-12-03T19:56:52.271Z,101279.16
2022-12-03T19:59:19.526Z,101271.41
2022-12-03T20:01:47.021Z,101276.81
2022-12-03T20:04:14.347Z,101273.78
2022-12-03T20:06:42.098Z,101283.28
2022-12-03T20:09:17.193Z,101281.69
2022-12-03T20:11:45.776Z,101276.28
2022-12-03T20:14:15.794Z,101279.00
2022-12-03T20:16:44.747Z,101278.19
2022-12-03T20:19:15.047Z,101282.06
2022-12-03T20:21:43.906Z,101273.13
2022-12-03T20:24:15.122Z,101272.06
2022-12-03T20:26:43.265Z,101268.66
2022-12-03T20:29:10.612Z,101265.13
2022-12-03T20:31:38.041Z,101264.94
2022-12-03T20:34:07.259Z,101253.13
2022-12-03T20:36:35.035Z,101254.78
2022-12-03T20:39:05.637Z,101250.03
2022-12-03T20:41:35.934Z,101248.16
2022-12-03T20:44:05.980Z,101247.97
2022-12-03T20:46:34.168Z,101248.38
2022-12-03T20:49:01.651Z,101258.63
2022-12-03T20:51:30.608Z,101249.34
2022-12-03T20:53:59.754Z,101246.00
2022-12-03T20:56:36.255Z,101250.91
2022-12-03T20:59:06.415Z,101251.91
2022-12-03T21:01:36.031Z,101247.13
2022-12-03T21:04:05.217Z,101240.59
2022-12-03T21:06:35.711Z,101245.28
2022-12-03T21:09:05.647Z,101245.94
2022-12-03T21:11:35.940Z,101248.47
2022-12-03T21:14:04.090Z,101251.69
2022-12-03T21:17:05.979Z,101250.19
2022-12-03T21:19:22.055Z,101241.03
2022-12-03T21:21:49.393Z,101243.28
2022-12-03T21:24:17.241Z,101244.28
2022-12-03T21:26:44.612Z,101237.50
2022-12-03T21:29:11.963Z,101237.16
2022-12-03T21:31:39.903Z,101225.66
2022-12-03T21:34:08.576Z,101231.41
2022-12-03T21:36:36.051Z,101224.63
2022-12-03T21:39:05.354Z,101223.28
2022-12-03T21:41:32.942Z,101211.41
2022-12-03T21:44:00.202Z,101208.91
2022-12-03T21:47:11.221Z,101213.84
2022-12-03T21:49:16.247Z,101219.75
2022-12-03T21:51:43.531Z,101218.72
2022-12-03T21:54:11.150Z,101206.00
2022-12-03T21:56:39.130Z,101203.97
2022-12-03T21:59:06.386Z,101200.31
2022-12-03T22:01:34.092Z,101198.94
2022-12-03T22:04:01.794Z,101206.56
2022-12-03T22:06:29.075Z,101198.59
2022-12-03T22:08:56.358Z,101211.47
2022-12-03T22:11:24.369Z,101213.31
2022-12-03T22:13:52.452Z,101208.25
2022-12-03T22:16:21.597Z,101200.31
2022-12-03T22:18:49.813Z,101202.56
2022-12-03T22:21:20.009Z,101206.81
2022-12-03T22:23:47.387Z,101210.19
2022-12-03T22:26:18.261Z,101213.56
2022-12-03T22:28:48.102Z,101218.25
2022-12-03T22:31:16.759Z,101219.44
2022-12-03T22:33:48.136Z,101215.41
2022-12-03T22:36:20.912Z,101214.16
2022-12-03T22:38:50.872Z,101217.38
2022-12-03T22:41:19.032Z,101219.09
2022-12-03T22:43:47.776Z,101218.59
2022-12-03T22:46:16.787Z,101217.75
2022-12-03T22:48:45.664Z,101214.38
2022-12-03T22:51:22.128Z,101213.56
2022-12-03T22:54:01.954Z,101220.31
